sensor_id;sensor_type;location;lat;lon;timestamp;temperature;humidity
28715;DHT22;15886;49.170;14.572;2023-01-29T00:01:09;-1.50;99.90
28715;DHT22;15886;49.170;14.572;2023-01-29T00:03:39;-1.50;99.90
28715;DHT22;15886;49.170;14.572;2023-01-29T00:06:09;-1.50;99.90
28715;DHT22;15886;49.170;14.572;2023-01-29T00:08:45;-1.50;99.90
28715;DHT22;15886;49.170;14.572;2023-01-29T00:11:14;-1.50;99.90
28715;DHT22;15886;49.170;14.572;2023-01-29T00:13:48;-1.60;99.90
28715;DHT22;15886;49.170;14.572;2023-01-29T00:16:23;-1.60;99.90
28715;DHT22;15886;49.170;14.572;2023-01-29T00:18:55;-1.60;99.90
28715;DHT22;15886;49.170;14.572;2023-01-29T00:21:23;-1.50;99.90
28715;DHT22;15886;49.170;14.572;2023-01-29T00:23:53;-1.50;99.90
28715;DHT22;15886;49.170;14.572;2023-01-29T00:26:22;-1.50;99.90
28715;DHT22;15886;49.170;14.572;2023-01-29T00:28:51;-1.40;99.90
28715;DHT22;15886;49.170;14.572;2023-01-29T00:31:22;-1.40;99.90
28715;DHT22;15886;49.170;14.572;2023-01-29T00:33:51;-1.50;99.90
28715;DHT22;15886;49.170;14.572;2023-01-29T00:36:21;-1.50;99.90
28715;DHT22;15886;49.170;14.572;2023-01-29T00:38:59;-1.50;99.90
28715;DHT22;15886;49.170;14.572;2023-01-29T00:41:31;-1.40;99.90
28715;DHT22;15886;49.170;14.572;2023-01-29T00:44:18;-1.40;99.90
28715;DHT22;15886;49.170;14.572;2023-01-29T00:47:05;-1.50;99.90
28715;DHT22;15886;49.170;14.572;2023-01-29T00:49:54;-1.50;99.90
28715;DHT22;15886;49.170;14.572;2023-01-29T00:52:23;-1.60;99.90
28715;DHT22;15886;49.170;14.572;2023-01-29T00:54:53;-1.60;99.90
28715;DHT22;15886;49.170;14.572;2023-01-29T00:57:22;-1.70;99.90
28715;DHT22;15886;49.170;14.572;2023-01-29T00:59:51;-1.70;99.90
28715;DHT22;15886;49.170;14.572;2023-01-29T01:02:21;-1.70;99.90
28715;DHT22;15886;49.170;14.572;2023-01-29T01:05:11;-1.60;99.90
28715;DHT22;15886;49.170;14.572;2023-01-29T01:07:53;-1.60;99.90
28715;DHT22;15886;49.170;14.572;2023-01-29T01:10:29;-1.60;99.90
28715;DHT22;15886;49.170;14.572;2023-01-29T01:13:01;-1.60;99.90
28715;DHT22;15886;49.170;14.572;2023-01-29T01:15:34;-1.60;99.90
28715;DHT22;15886;49.170;14.572;2023-01-29T01:18:03;-1.60;99.90
28715;DHT22;15886;49.170;14.572;2023-01-29T01:20:34;-1.60;99.90
28715;DHT22;15886;49.170;14.572;2023-01-29T01:23:03;-1.70;99.90
28715;DHT22;15886;49.170;14.572;2023-01-29T01:25:31;-1.60;99.90
28715;DHT22;15886;49.170;14.572;2023-01-29T01:28:00;-1.70;99.90
28715;DHT22;15886;49.170;14.572;2023-01-29T01:30:29;-1.60;99.90
28715;DHT22;15886;49.170;14.572;2023-01-29T01:32:58;-1.60;99.90
28715;DHT22;15886;49.170;14.572;2023-01-29T01:35:26;-1.60;99.90
28715;DHT22;15886;49.170;14.572;2023-01-29T01:37:54;-1.60;99.90
28715;DHT22;15886;49.170;14.572;2023-01-29T01:40:24;-1.60;99.90
28715;DHT22;15886;49.170;14.572;2023-01-29T01:42:55;-1.60;99.90
28715;DHT22;15886;49.170;14.572;2023-01-29T01:48:14;-1.70;99.90
28715;DHT22;15886;49.170;14.572;2023-01-29T01:50:53;-1.70;99.90
28715;DHT22;15886;49.170;14.572;2023-01-29T01:53:39;-1.70;99.90
28715;DHT22;15886;49.170;14.572;2023-01-29T01:56:13;-1.80;99.90
28715;DHT22;15886;49.170;14.572;2023-01-29T01:58:46;-1.80;99.90
28715;DHT22;15886;49.170;14.572;2023-01-29T02:01:17;-1.80;99.90
28715;DHT22;15886;49.170;14.572;2023-01-29T02:06:46;-1.90;99.90
28715;DHT22;15886;49.170;14.572;2023-01-29T02:09:43;-1.80;99.90
28715;DHT22;15886;49.170;14.572;2023-01-29T02:12:14;-1.90;99.90
28715;DHT22;15886;49.170;14.572;2023-01-29T02:14:44;-1.90;99.90
28715;DHT22;15886;49.170;14.572;2023-01-29T02:17:14;-1.90;99.90
28715;DHT22;15886;49.170;14.572;2023-01-29T02:30:39;-1.80;99.90
28715;DHT22;15886;49.170;14.572;2023-01-29T02:36:10;-1.70;99.90
28715;DHT22;15886;49.170;14.572;2023-01-29T02:38:52;-1.80;99.90
28715;DHT22;15886;49.170;14.572;2023-01-29T02:41:30;-1.70;99.90
28715;DHT22;15886;49.170;14.572;2023-01-29T02:49:21;-1.70;99.90
28715;DHT22;15886;49.170;14.572;2023-01-29T02:54:53;-1.60;99.90
28715;DHT22;15886;49.170;14.572;2023-01-29T02:57:29;-1.60;99.90
28715;DHT22;15886;49.170;14.572;2023-01-29T03:00:04;-1.60;99.90
28715;DHT22;15886;49.170;14.572;2023-01-29T03:02:57;-1.70;99.90
28715;DHT22;15886;49.170;14.572;2023-01-29T03:08:39;-1.70;99.90
28715;DHT22;15886;49.170;14.572;2023-01-29T03:11:14;-1.70;99.90
28715;DHT22;15886;49.170;14.572;2023-01-29T03:13:54;-1.70;99.90
28715;DHT22;15886;49.170;14.572;2023-01-29T03:16:31;-1.70;99.90
28715;DHT22;15886;49.170;14.572;2023-01-29T03:19:05;-1.70;99.90
28715;DHT22;15886;49.170;14.572;2023-01-29T03:21:42;-1.70;99.90
28715;DHT22;15886;49.170;14.572;2023-01-29T03:24:29;-1.80;99.90
28715;DHT22;15886;49.170;14.572;2023-01-29T03:27:29;-1.90;99.90
28715;DHT22;15886;49.170;14.572;2023-01-29T03:30:18;-2.00;99.90
28715;DHT22;15886;49.170;14.572;2023-01-29T03:33:19;-2.10;99.90
28715;DHT22;15886;49.170;14.572;2023-01-29T03:35:57;-2.10;99.90
28715;DHT22;15886;49.170;14.572;2023-01-29T03:38:29;-2.10;99.90
28715;DHT22;15886;49.170;14.572;2023-01-29T03:41:07;-2.10;99.90
28715;DHT22;15886;49.170;14.572;2023-01-29T03:44:17;-2.20;99.90
28715;DHT22;15886;49.170;14.572;2023-01-29T03:46:55;-2.20;99.90
28715;DHT22;15886;49.170;14.572;2023-01-29T03:52:15;-2.20;99.90
28715;DHT22;15886;49.170;14.572;2023-01-29T03:57:55;-2.30;99.90
28715;DHT22;15886;49.170;14.572;2023-01-29T04:00:33;-2.30;99.90
28715;DHT22;15886;49.170;14.572;2023-01-29T04:03:26;-2.30;99.90
28715;DHT22;15886;49.170;14.572;2023-01-29T04:06:06;-2.30;99.90
28715;DHT22;15886;49.170;14.572;2023-01-29T04:09:28;-2.20;99.90
28715;DHT22;15886;49.170;14.572;2023-01-29T04:12:25;-2.20;99.90
28715;DHT22;15886;49.170;14.572;2023-01-29T04:14:56;-2.30;99.90
28715;DHT22;15886;49.170;14.572;2023-01-29T04:17:39;-2.30;99.90
28715;DHT22;15886;49.170;14.572;2023-01-29T04:20:13;-2.30;99.90
28715;DHT22;15886;49.170;14.572;2023-01-29T04:22:45;-2.30;99.90
28715;DHT22;15886;49.170;14.572;2023-01-29T04:25:18;-2.30;99.90
28715;DHT22;15886;49.170;14.572;2023-01-29T04:28:15;-2.40;99.90
28715;DHT22;15886;49.170;14.572;2023-01-29T04:30:53;-2.40;99.90
28715;DHT22;15886;49.170;14.572;2023-01-29T04:33:34;-2.40;99.90
28715;DHT22;15886;49.170;14.572;2023-01-29T04:39:17;-2.50;99.90
28715;DHT22;15886;49.170;14.572;2023-01-29T04:42:12;-2.50;99.90
28715;DHT22;15886;49.170;14.572;2023-01-29T04:44:49;-2.50;99.90
28715;DHT22;15886;49.170;14.572;2023-01-29T04:47:56;-2.60;99.90
28715;DHT22;15886;49.170;14.572;2023-01-29T04:50:36;-2.70;99.90
28715;DHT22;15886;49.170;14.572;2023-01-29T04:53:22;-2.70;99.90
28715;DHT22;15886;49.170;14.572;2023-01-29T04:55:57;-2.80;99.90
28715;DHT22;15886;49.170;14.572;2023-01-29T04:58:34;-2.70;99.90
28715;DHT22;15886;49.170;14.572;2023-01-29T05:01:07;-2.70;99.90
28715;DHT22;15886;49.170;14.572;2023-01-29T05:03:40;-2.60;99.90
28715;DHT22;15886;49.170;14.572;2023-01-29T05:06:09;-2.60;99.90
28715;DHT22;15886;49.170;14.572;2023-01-29T05:08:38;-2.60;99.90
28715;DHT22;15886;49.170;14.572;2023-01-29T05:11:08;-2.60;99.90
28715;DHT22;15886;49.170;14.572;2023-01-29T05:13:39;-2.60;99.90
28715;DHT22;15886;49.170;14.572;2023-01-29T05:18:49;-2.50;99.90
28715;DHT22;15886;49.170;14.572;2023-01-29T05:21:18;-2.50;99.90
28715;DHT22;15886;49.170;14.572;2023-01-29T05:23:46;-2.50;99.90
28715;DHT22;15886;49.170;14.572;2023-01-29T05:26:32;-2.50;99.90
28715;DHT22;15886;49.170;14.572;2023-01-29T05:29:20;-2.50;99.90
28715;DHT22;15886;49.170;14.572;2023-01-29T05:31:48;-2.40;99.90
28715;DHT22;15886;49.170;14.572;2023-01-29T05:34:17;-2.50;99.90
28715;DHT22;15886;49.170;14.572;2023-01-29T05:36:46;-2.50;99.90
28715;DHT22;15886;49.170;14.572;2023-01-29T05:39:16;-2.40;99.90
28715;DHT22;15886;49.170;14.572;2023-01-29T05:41:44;-2.40;99.90
28715;DHT22;15886;49.170;14.572;2023-01-29T05:44:12;-2.40;99.90
28715;DHT22;15886;49.170;14.572;2023-01-29T05:46:41;-2.40;99.90
28715;DHT22;15886;49.170;14.572;2023-01-29T05:49:10;-2.40;99.90
28715;DHT22;15886;49.170;14.572;2023-01-29T05:51:39;-2.30;99.90
28715;DHT22;15886;49.170;14.572;2023-01-29T05:54:13;-2.30;99.90
28715;DHT22;15886;49.170;14.572;2023-01-29T05:56:41;-2.30;99.90
28715;DHT22;15886;49.170;14.572;2023-01-29T05:59:09;-2.30;99.90
28715;DHT22;15886;49.170;14.572;2023-01-29T06:01:37;-2.30;99.90
28715;DHT22;15886;49.170;14.572;2023-01-29T06:04:06;-2.30;99.90
28715;DHT22;15886;49.170;14.572;2023-01-29T06:06:34;-2.30;99.90
28715;DHT22;15886;49.170;14.572;2023-01-29T06:09:02;-2.20;99.90
28715;DHT22;15886;49.170;14.572;2023-01-29T06:11:31;-2.20;99.90
28715;DHT22;15886;49.170;14.572;2023-01-29T06:13:59;-2.10;99.90
28715;DHT22;15886;49.170;14.572;2023-01-29T06:16:28;-2.20;99.90
28715;DHT22;15886;49.170;14.572;2023-01-29T06:18:56;-2.10;99.90
28715;DHT22;15886;49.170;14.572;2023-01-29T06:21:24;-2.10;99.90
28715;DHT22;15886;49.170;14.572;2023-01-29T06:23:52;-2.10;99.90
28715;DHT22;15886;49.170;14.572;2023-01-29T06:26:20;-2.10;99.90
28715;DHT22;15886;49.170;14.572;2023-01-29T06:28:49;-2.00;99.90
28715;DHT22;15886;49.170;14.572;2023-01-29T06:31:17;-2.00;99.90
28715;DHT22;15886;49.170;14.572;2023-01-29T06:34:08;-2.00;99.90
28715;DHT22;15886;49.170;14.572;2023-01-29T06:36:37;-2.00;99.90
28715;DHT22;15886;49.170;14.572;2023-01-29T06:39:05;-2.00;99.90
28715;DHT22;15886;49.170;14.572;2023-01-29T06:41:33;-2.00;99.90
28715;DHT22;15886;49.170;14.572;2023-01-29T06:44:01;-2.00;99.90
28715;DHT22;15886;49.170;14.572;2023-01-29T06:46:29;-1.90;99.90
28715;DHT22;15886;49.170;14.572;2023-01-29T06:48:58;-1.90;99.90
28715;DHT22;15886;49.170;14.572;2023-01-29T06:51:30;-1.80;99.90
28715;DHT22;15886;49.170;14.572;2023-01-29T06:53:58;-1.80;99.90
28715;DHT22;15886;49.170;14.572;2023-01-29T06:56:26;-1.90;99.90
28715;DHT22;15886;49.170;14.572;2023-01-29T06:58:55;-1.90;99.90
28715;DHT22;15886;49.170;14.572;2023-01-29T07:01:23;-1.80;99.90
28715;DHT22;15886;49.170;14.572;2023-01-29T07:04:02;-1.80;99.90
28715;DHT22;15886;49.170;14.572;2023-01-29T07:06:31;-1.80;99.90
28715;DHT22;15886;49.170;14.572;2023-01-29T07:08:59;-1.80;99.90
28715;DHT22;15886;49.170;14.572;2023-01-29T07:11:27;-1.90;99.90
28715;DHT22;15886;49.170;14.572;2023-01-29T07:13:55;-1.90;99.90
28715;DHT22;15886;49.170;14.572;2023-01-29T07:16:23;-1.90;99.90
28715;DHT22;15886;49.170;14.572;2023-01-29T07:18:53;-1.90;99.90
28715;DHT22;15886;49.170;14.572;2023-01-29T07:21:21;-1.90;99.90
28715;DHT22;15886;49.170;14.572;2023-01-29T07:23:50;-1.90;99.90
28715;DHT22;15886;49.170;14.572;2023-01-29T07:26:18;-1.90;99.90
28715;DHT22;15886;49.170;14.572;2023-01-29T07:28:46;-1.90;99.90
28715;DHT22;15886;49.170;14.572;2023-01-29T07:31:14;-1.90;99.90
28715;DHT22;15886;49.170;14.572;2023-01-29T07:33:43;-1.90;99.90
28715;DHT22;15886;49.170;14.572;2023-01-29T07:36:14;-1.90;99.90
28715;DHT22;15886;49.170;14.572;2023-01-29T07:38:42;-1.90;99.90
28715;DHT22;15886;49.170;14.572;2023-01-29T07:41:13;-1.90;99.90
28715;DHT22;15886;49.170;14.572;2023-01-29T07:43:44;-1.80;99.90
28715;DHT22;15886;49.170;14.572;2023-01-29T07:46:13;-1.80;99.90
28715;DHT22;15886;49.170;14.572;2023-01-29T07:48:41;-1.80;99.90
28715;DHT22;15886;49.170;14.572;2023-01-29T07:51:10;-1.80;99.90
28715;DHT22;15886;49.170;14.572;2023-01-29T07:53:38;-1.80;99.90
28715;DHT22;15886;49.170;14.572;2023-01-29T07:56:07;-1.80;99.90
28715;DHT22;15886;49.170;14.572;2023-01-29T07:58:35;-1.70;99.90
28715;DHT22;15886;49.170;14.572;2023-01-29T08:01:07;-1.70;99.90
28715;DHT22;15886;49.170;14.572;2023-01-29T08:03:35;-1.60;99.90
28715;DHT22;15886;49.170;14.572;2023-01-29T08:06:04;-1.60;99.90
28715;DHT22;15886;49.170;14.572;2023-01-29T08:08:33;-1.50;99.90
28715;DHT22;15886;49.170;14.572;2023-01-29T08:11:02;-1.50;99.90
28715;DHT22;15886;49.170;14.572;2023-01-29T08:13:32;-1.40;99.90
28715;DHT22;15886;49.170;14.572;2023-01-29T08:16:02;-1.40;99.90
28715;DHT22;15886;49.170;14.572;2023-01-29T08:18:31;-1.40;99.90
28715;DHT22;15886;49.170;14.572;2023-01-29T08:21:01;-1.30;99.90
28715;DHT22;15886;49.170;14.572;2023-01-29T08:23:29;-1.30;99.90
28715;DHT22;15886;49.170;14.572;2023-01-29T08:25:57;-1.20;99.90
28715;DHT22;15886;49.170;14.572;2023-01-29T08:28:25;-1.20;99.90
28715;DHT22;15886;49.170;14.572;2023-01-29T08:30:54;-1.10;99.90
28715;DHT22;15886;49.170;14.572;2023-01-29T08:33:22;-1.00;99.90
28715;DHT22;15886;49.170;14.572;2023-01-29T08:36:06;-1.00;99.90
28715;DHT22;15886;49.170;14.572;2023-01-29T08:38:36;-1.00;99.90
28715;DHT22;15886;49.170;14.572;2023-01-29T08:41:07;-1.00;99.90
28715;DHT22;15886;49.170;14.572;2023-01-29T08:43:35;-1.00;99.90
28715;DHT22;15886;49.170;14.572;2023-01-29T08:46:04;-0.90;99.90
28715;DHT22;15886;49.170;14.572;2023-01-29T08:48:33;-0.90;99.90
28715;DHT22;15886;49.170;14.572;2023-01-29T08:51:02;-0.90;99.90
28715;DHT22;15886;49.170;14.572;2023-01-29T08:53:32;-0.80;99.90
28715;DHT22;15886;49.170;14.572;2023-01-29T08:56:00;-0.70;99.90
28715;DHT22;15886;49.170;14.572;2023-01-29T08:58:28;-0.70;99.90
28715;DHT22;15886;49.170;14.572;2023-01-29T09:01:05;-0.60;99.90
28715;DHT22;15886;49.170;14.572;2023-01-29T09:03:34;-0.60;99.90
28715;DHT22;15886;49.170;14.572;2023-01-29T09:06:02;-0.60;99.90
28715;DHT22;15886;49.170;14.572;2023-01-29T09:08:30;-0.60;99.90
28715;DHT22;15886;49.170;14.572;2023-01-29T09:10:59;-0.60;99.90
28715;DHT22;15886;49.170;14.572;2023-01-29T09:13:27;-0.70;99.90
28715;DHT22;15886;49.170;14.572;2023-01-29T09:16:03;-0.70;99.90
28715;DHT22;15886;49.170;14.572;2023-01-29T09:18:34;-0.70;99.90
28715;DHT22;15886;49.170;14.572;2023-01-29T09:21:03;-0.70;99.90
28715;DHT22;15886;49.170;14.572;2023-01-29T09:23:32;-0.70;99.90
28715;DHT22;15886;49.170;14.572;2023-01-29T09:26:00;-0.70;99.90
28715;DHT22;15886;49.170;14.572;2023-01-29T09:28:29;-0.70;99.90
28715;DHT22;15886;49.170;14.572;2023-01-29T09:31:00;-0.70;99.90
28715;DHT22;15886;49.170;14.572;2023-01-29T09:33:30;-0.70;99.90
28715;DHT22;15886;49.170;14.572;2023-01-29T09:36:01;-0.60;99.90
28715;DHT22;15886;49.170;14.572;2023-01-29T09:38:29;-0.60;99.90
28715;DHT22;15886;49.170;14.572;2023-01-29T09:43:52;-0.50;99.90
28715;DHT22;15886;49.170;14.572;2023-01-29T09:49:06;-0.50;99.90
28715;DHT22;15886;49.170;14.572;2023-01-29T09:51:43;-0.50;99.90
28715;DHT22;15886;49.170;14.572;2023-01-29T09:54:35;-0.50;99.90
28715;DHT22;15886;49.170;14.572;2023-01-29T09:57:09;-0.40;99.90
28715;DHT22;15886;49.170;14.572;2023-01-29T09:59:43;-0.40;99.90
28715;DHT22;15886;49.170;14.572;2023-01-29T10:05:07;-0.30;99.90
28715;DHT22;15886;49.170;14.572;2023-01-29T10:13:51;-0.40;99.90
28715;DHT22;15886;49.170;14.572;2023-01-29T10:25:20;-0.30;99.90
28715;DHT22;15886;49.170;14.572;2023-01-29T10:28:00;-0.30;99.90
28715;DHT22;15886;49.170;14.572;2023-01-29T10:30:36;-0.30;99.90
28715;DHT22;15886;49.170;14.572;2023-01-29T10:33:21;-0.30;99.90
28715;DHT22;15886;49.170;14.572;2023-01-29T10:35:55;-0.20;99.90
28715;DHT22;15886;49.170;14.572;2023-01-29T10:38:46;-0.20;99.90
28715;DHT22;15886;49.170;14.572;2023-01-29T10:41:21;-0.10;99.90
28715;DHT22;15886;49.170;14.572;2023-01-29T10:44:14;-0.10;99.90
28715;DHT22;15886;49.170;14.572;2023-01-29T10:52:34;-0.10;99.90
28715;DHT22;15886;49.170;14.572;2023-01-29T10:58:29;-0.20;99.90
28715;DHT22;15886;49.170;14.572;2023-01-29T11:00:58;-0.10;99.90
28715;DHT22;15886;49.170;14.572;2023-01-29T11:03:30;-0.20;99.90
28715;DHT22;15886;49.170;14.572;2023-01-29T11:06:09;-0.10;99.90
28715;DHT22;15886;49.170;14.572;2023-01-29T11:08:45;-0.10;99.90
28715;DHT22;15886;49.170;14.572;2023-01-29T11:11:17;-0.10;99.90
28715;DHT22;15886;49.170;14.572;2023-01-29T11:14:12;-0.10;99.90
28715;DHT22;15886;49.170;14.572;2023-01-29T11:16:45;-0.10;99.90
28715;DHT22;15886;49.170;14.572;2023-01-29T11:19:17;0.00;99.90
28715;DHT22;15886;49.170;14.572;2023-01-29T11:21:54;0.00;99.90
28715;DHT22;15886;49.170;14.572;2023-01-29T11:24:25;0.00;99.90
28715;DHT22;15886;49.170;14.572;2023-01-29T11:26:58;0.00;99.90
28715;DHT22;15886;49.170;14.572;2023-01-29T11:29:42;0.10;99.90
28715;DHT22;15886;49.170;14.572;2023-01-29T11:34:58;0.20;99.90
28715;DHT22;15886;49.170;14.572;2023-01-29T11:37:35;0.20;99.90
28715;DHT22;15886;49.170;14.572;2023-01-29T11:42:54;0.10;99.90
28715;DHT22;15886;49.170;14.572;2023-01-29T11:47:59;0.10;99.90
28715;DHT22;15886;49.170;14.572;2023-01-29T11:50:53;0.10;99.90
28715;DHT22;15886;49.170;14.572;2023-01-29T11:53:39;0.00;99.90
28715;DHT22;15886;49.170;14.572;2023-01-29T11:56:31;0.10;99.90
28715;DHT22;15886;49.170;14.572;2023-01-29T12:02:45;0.20;99.90
28715;DHT22;15886;49.170;14.572;2023-01-29T12:05:22;0.20;99.90
28715;DHT22;15886;49.170;14.572;2023-01-29T12:07:59;0.20;99.90
28715;DHT22;15886;49.170;14.572;2023-01-29T12:10:39;0.20;99.90
28715;DHT22;15886;49.170;14.572;2023-01-29T12:13:24;0.20;99.90
28715;DHT22;15886;49.170;14.572;2023-01-29T12:16:17;0.20;99.90
28715;DHT22;15886;49.170;14.572;2023-01-29T12:19:19;0.20;99.90
28715;DHT22;15886;49.170;14.572;2023-01-29T12:21:59;0.20;99.90
28715;DHT22;15886;49.170;14.572;2023-01-29T12:24:51;0.20;99.90
28715;DHT22;15886;49.170;14.572;2023-01-29T12:27:30;0.20;99.90
28715;DHT22;15886;49.170;14.572;2023-01-29T12:38:49;0.20;99.90
28715;DHT22;15886;49.170;14.572;2023-01-29T12:43:52;0.30;99.90
28715;DHT22;15886;49.170;14.572;2023-01-29T12:46:28;0.30;99.90
28715;DHT22;15886;49.170;14.572;2023-01-29T12:49:00;0.30;99.90
28715;DHT22;15886;49.170;14.572;2023-01-29T12:51:38;0.30;99.90
28715;DHT22;15886;49.170;14.572;2023-01-29T12:54:13;0.40;99.90
28715;DHT22;15886;49.170;14.572;2023-01-29T12:56:48;0.30;99.90
28715;DHT22;15886;49.170;14.572;2023-01-29T13:02:17;0.30;99.90
28715;DHT22;15886;49.170;14.572;2023-01-29T13:05:01;0.30;99.90
28715;DHT22;15886;49.170;14.572;2023-01-29T13:07:38;0.30;99.90
28715;DHT22;15886;49.170;14.572;2023-01-29T13:10:17;0.30;99.90
28715;DHT22;15886;49.170;14.572;2023-01-29T13:13:06;0.30;99.90
28715;DHT22;15886;49.170;14.572;2023-01-29T13:15:40;0.30;99.90
28715;DHT22;15886;49.170;14.572;2023-01-29T13:18:32;0.30;99.90
28715;DHT22;15886;49.170;14.572;2023-01-29T13:21:04;0.30;99.90
28715;DHT22;15886;49.170;14.572;2023-01-29T13:23:46;0.40;99.90
28715;DHT22;15886;49.170;14.572;2023-01-29T13:26:19;0.40;99.90
28715;DHT22;15886;49.170;14.572;2023-01-29T13:28:48;0.40;99.90
28715;DHT22;15886;49.170;14.572;2023-01-29T13:31:33;0.50;99.90
28715;DHT22;15886;49.170;14.572;2023-01-29T13:34:19;0.40;99.90
28715;DHT22;15886;49.170;14.572;2023-01-29T13:36:54;0.50;99.90
28715;DHT22;15886;49.170;14.572;2023-01-29T13:41:51;0.50;99.90
28715;DHT22;15886;49.170;14.572;2023-01-29T13:47:04;0.50;99.90
28715;DHT22;15886;49.170;14.572;2023-01-29T13:49:37;0.50;99.90
28715;DHT22;15886;49.170;14.572;2023-01-29T13:52:37;0.50;99.90
28715;DHT22;15886;49.170;14.572;2023-01-29T14:05:43;0.40;99.90
28715;DHT22;15886;49.170;14.572;2023-01-29T14:10:41;0.40;99.90
28715;DHT22;15886;49.170;14.572;2023-01-29T14:18:26;0.50;99.90
28715;DHT22;15886;49.170;14.572;2023-01-29T14:21:05;0.40;99.90
28715;DHT22;15886;49.170;14.572;2023-01-29T14:23:38;0.50;99.90
28715;DHT22;15886;49.170;14.572;2023-01-29T14:26:23;0.50;99.90
28715;DHT22;15886;49.170;14.572;2023-01-29T14:37:41;0.60;99.90
28715;DHT22;15886;49.170;14.572;2023-01-29T14:39:51;0.50;99.90
28715;DHT22;15886;49.170;14.572;2023-01-29T14:45:30;0.60;99.90
28715;DHT22;15886;49.170;14.572;2023-01-29T14:50:50;0.50;99.90
28715;DHT22;15886;49.170;14.572;2023-01-29T14:53:27;0.40;99.90
28715;DHT22;15886;49.170;14.572;2023-01-29T14:56:16;0.40;99.90
28715;DHT22;15886;49.170;14.572;2023-01-29T14:59:01;0.30;99.90
28715;DHT22;15886;49.170;14.572;2023-01-29T15:01:33;0.30;99.90
28715;DHT22;15886;49.170;14.572;2023-01-29T15:04:16;0.30;99.90
28715;DHT22;15886;49.170;14.572;2023-01-29T15:10:03;0.40;99.90
28715;DHT22;15886;49.170;14.572;2023-01-29T15:13:11;0.40;99.90
28715;DHT22;15886;49.170;14.572;2023-01-29T15:16:08;0.40;99.90
28715;DHT22;15886;49.170;14.572;2023-01-29T15:18:40;0.40;99.90
28715;DHT22;15886;49.170;14.572;2023-01-29T15:21:15;0.40;99.90
28715;DHT22;15886;49.170;14.572;2023-01-29T15:23:46;0.30;99.90
28715;DHT22;15886;49.170;14.572;2023-01-29T15:26:20;0.20;99.90
28715;DHT22;15886;49.170;14.572;2023-01-29T15:28:58;0.20;99.90
28715;DHT22;15886;49.170;14.572;2023-01-29T15:31:31;0.10;99.90
28715;DHT22;15886;49.170;14.572;2023-01-29T15:34:03;0.10;99.90
28715;DHT22;15886;49.170;14.572;2023-01-29T15:36:33;0.10;99.90
28715;DHT22;15886;49.170;14.572;2023-01-29T15:41:41;0.00;99.90
28715;DHT22;15886;49.170;14.572;2023-01-29T15:44:16;0.00;99.90
28715;DHT22;15886;49.170;14.572;2023-01-29T15:46:52;0.00;99.90
28715;DHT22;15886;49.170;14.572;2023-01-29T15:49:32;-0.10;99.90
28715;DHT22;15886;49.170;14.572;2023-01-29T15:52:15;-0.20;99.90
28715;DHT22;15886;49.170;14.572;2023-01-29T15:54:47;-0.20;99.90
28715;DHT22;15886;49.170;14.572;2023-01-29T15:57:22;-0.30;99.90
28715;DHT22;15886;49.170;14.572;2023-01-29T15:59:52;-0.30;99.90
28715;DHT22;15886;49.170;14.572;2023-01-29T16:05:03;-0.40;99.90
28715;DHT22;15886;49.170;14.572;2023-01-29T16:07:33;-0.40;99.90
28715;DHT22;15886;49.170;14.572;2023-01-29T16:10:03;-0.50;99.90
28715;DHT22;15886;49.170;14.572;2023-01-29T16:12:32;-0.60;99.90
28715;DHT22;15886;49.170;14.572;2023-01-29T16:15:02;-0.70;99.90
28715;DHT22;15886;49.170;14.572;2023-01-29T16:17:32;-0.80;99.90
28715;DHT22;15886;49.170;14.572;2023-01-29T16:20:06;-0.80;99.90
28715;DHT22;15886;49.170;14.572;2023-01-29T16:22:35;-0.90;99.90
28715;DHT22;15886;49.170;14.572;2023-01-29T16:25:07;-0.90;99.90
28715;DHT22;15886;49.170;14.572;2023-01-29T16:27:39;-0.90;99.90
28715;DHT22;15886;49.170;14.572;2023-01-29T16:30:14;-0.90;99.90
28715;DHT22;15886;49.170;14.572;2023-01-29T16:32:43;-1.00;99.90
28715;DHT22;15886;49.170;14.572;2023-01-29T16:35:14;-1.00;99.90
28715;DHT22;15886;49.170;14.572;2023-01-29T16:37:47;-1.10;99.90
28715;DHT22;15886;49.170;14.572;2023-01-29T16:40:30;-1.10;99.90
28715;DHT22;15886;49.170;14.572;2023-01-29T16:46:26;-1.10;99.90
28715;DHT22;15886;49.170;14.572;2023-01-29T16:48:59;-1.10;99.90
28715;DHT22;15886;49.170;14.572;2023-01-29T16:51:37;-1.10;99.90
28715;DHT22;15886;49.170;14.572;2023-01-29T16:54:10;-1.20;99.90
28715;DHT22;15886;49.170;14.572;2023-01-29T16:56:38;-1.30;99.90
28715;DHT22;15886;49.170;14.572;2023-01-29T16:59:19;-1.30;99.90
28715;DHT22;15886;49.170;14.572;2023-01-29T17:01:53;-1.40;99.90
28715;DHT22;15886;49.170;14.572;2023-01-29T17:04:26;-1.50;99.90
28715;DHT22;15886;49.170;14.572;2023-01-29T17:06:59;-1.50;99.90
28715;DHT22;15886;49.170;14.572;2023-01-29T17:09:30;-1.50;99.90
28715;DHT22;15886;49.170;14.572;2023-01-29T17:12:03;-1.50;99.90
28715;DHT22;15886;49.170;14.572;2023-01-29T17:21:24;-1.70;99.90
28715;DHT22;15886;49.170;14.572;2023-01-29T17:51:30;-2.20;99.90
28715;DHT22;15886;49.170;14.572;2023-01-29T17:59:59;-2.10;99.90
28715;DHT22;15886;49.170;14.572;2023-01-29T19:06:39;-3.00;99.90
28715;DHT22;15886;49.170;14.572;2023-01-29T19:09:08;-3.00;99.90
28715;DHT22;15886;49.170;14.572;2023-01-29T19:11:40;-3.00;99.90
28715;DHT22;15886;49.170;14.572;2023-01-29T19:14:39;-3.00;99.90
28715;DHT22;15886;49.170;14.572;2023-01-29T19:17:08;-3.00;99.90
28715;DHT22;15886;49.170;14.572;2023-01-29T19:19:37;-3.10;99.90
28715;DHT22;15886;49.170;14.572;2023-01-29T19:22:06;-3.10;99.90
28715;DHT22;15886;49.170;14.572;2023-01-29T19:24:34;-3.20;99.90
28715;DHT22;15886;49.170;14.572;2023-01-29T19:27:06;-3.20;99.90
28715;DHT22;15886;49.170;14.572;2023-01-29T19:29:34;-3.20;99.90
28715;DHT22;15886;49.170;14.572;2023-01-29T19:32:03;-3.30;99.90
28715;DHT22;15886;49.170;14.572;2023-01-29T19:34:32;-3.30;99.90
28715;DHT22;15886;49.170;14.572;2023-01-29T19:37:01;-3.30;99.90
28715;DHT22;15886;49.170;14.572;2023-01-29T19:39:29;-3.30;99.90
28715;DHT22;15886;49.170;14.572;2023-01-29T19:42:00;-3.30;99.90
28715;DHT22;15886;49.170;14.572;2023-01-29T19:44:30;-3.30;99.90
28715;DHT22;15886;49.170;14.572;2023-01-29T19:47:00;-3.30;99.90
28715;DHT22;15886;49.170;14.572;2023-01-29T19:49:28;-3.30;99.90
28715;DHT22;15886;49.170;14.572;2023-01-29T19:52:04;-3.30;99.90
28715;DHT22;15886;49.170;14.572;2023-01-29T19:54:34;-3.30;99.90
28715;DHT22;15886;49.170;14.572;2023-01-29T19:57:03;-3.40;99.90
28715;DHT22;15886;49.170;14.572;2023-01-29T19:59:31;-3.60;99.90
28715;DHT22;15886;49.170;14.572;2023-01-29T20:02:00;-3.60;99.90
28715;DHT22;15886;49.170;14.572;2023-01-29T20:04:28;-3.70;99.90
28715;DHT22;15886;49.170;14.572;2023-01-29T20:06:57;-3.70;99.90
28715;DHT22;15886;49.170;14.572;2023-01-29T20:09:26;-3.60;99.90
28715;DHT22;15886;49.170;14.572;2023-01-29T20:11:57;-3.60;99.90
28715;DHT22;15886;49.170;14.572;2023-01-29T20:14:25;-3.60;99.90
28715;DHT22;15886;49.170;14.572;2023-01-29T20:16:54;-3.60;99.90
28715;DHT22;15886;49.170;14.572;2023-01-29T20:19:23;-3.60;99.90